createdAt,value
2018-02-21T00:00:53.034Z,91.70
2018-02-21T00:01:53.023Z,93.30
2018-02-21T00:02:53.034Z,91.20
2018-02-21T00:03:53.054Z,94.70
2018-02-21T00:04:53.038Z,93.00
2018-02-21T00:05:53.067Z,88.00
2018-02-21T00:06:53.056Z,94.50
2018-02-21T00:07:53.061Z,95.30
2018-02-21T00:08:53.068Z,88.60
2018-02-21T00:09:53.083Z,91.70
2018-02-21T00:10:53.076Z,96.10
2018-02-21T00:11:53.081Z,96.50
2018-02-21T00:12:53.068Z,91.90
2018-02-21T00:13:53.140Z,95.70
2018-02-21T00:14:53.078Z,90.20
2018-02-21T00:15:53.126Z,94.90
2018-02-21T00:16:53.203Z,97.80
2018-02-21T00:17:53.109Z,94.30
2018-02-21T00:18:53.212Z,98.00
2018-02-21T00:19:53.092Z,96.20
2018-02-21T00:20:53.118Z,93.40
2018-02-21T00:21:53.112Z,90.10
2018-02-21T00:22:53.158Z,96.70
2018-02-21T00:23:53.120Z,96.50
2018-02-21T00:24:53.115Z,96.80
2018-02-21T00:25:53.119Z,98.90
2018-02-21T00:26:53.154Z,94.70
2018-02-21T00:27:53.131Z,93.10
2018-02-21T00:28:53.141Z,97.00
2018-02-21T00:29:53.214Z,98.70
2018-02-21T00:30:53.147Z,98.80
2018-02-21T00:31:53.220Z,97.90
2018-02-21T00:32:53.157Z,94.50
2018-02-21T00:33:53.152Z,96.90
2018-02-21T00:34:53.168Z,93.40
2018-02-21T00:35:53.171Z,92.60
2018-02-21T00:36:53.186Z,91.40
2018-02-21T00:37:53.180Z,94.40
2018-02-21T00:38:53.227Z,97.40
2018-02-21T00:39:53.211Z,95.30
2018-02-21T00:40:53.179Z,97.30
2018-02-21T00:41:53.189Z,95.70
2018-02-21T00:42:53.198Z,98.80
2018-02-21T00:43:53.201Z,95.30
2018-02-21T00:44:53.194Z,97.00
2018-02-21T00:45:53.220Z,99.30
2018-02-21T00:46:53.215Z,92.80
2018-02-21T00:47:53.211Z,95.80
2018-02-21T00:48:53.244Z,96.50
2018-02-21T00:49:53.265Z,97.60
2018-02-21T00:50:53.241Z,98.40
2018-02-21T00:51:53.253Z,98.70
2018-02-21T00:52:53.244Z,100.30
2018-02-21T00:53:53.276Z,91.20
2018-02-21T00:54:53.252Z,97.90
2018-02-21T00:55:53.233Z,99.40
2018-02-21T00:56:53.244Z,101.60
2018-02-21T00:57:53.247Z,101.80
2018-02-21T00:58:53.245Z,93.20
2018-02-21T00:59:53.249Z,96.20
2018-02-21T01:00:53.254Z,100.20
2018-02-21T01:01:53.262Z,97.20
2018-02-21T01:02:53.285Z,103.90
2018-02-21T01:03:53.298Z,100.20
2018-02-21T01:04:53.283Z,101.60
2018-02-21T01:05:53.279Z,104.10
2018-02-21T01:06:53.287Z,99.40
2018-02-21T01:07:53.284Z,101.80
2018-02-21T01:08:53.301Z,102.20
2018-02-21T01:09:53.287Z,103.50
2018-02-21T01:10:53.298Z,101.70
2018-02-21T01:11:53.310Z,108.30
2018-02-21T01:12:53.358Z,105.50
2018-02-21T01:13:53.322Z,103.40
2018-02-21T01:14:53.320Z,98.40
2018-02-21T01:15:53.338Z,103.00
2018-02-21T01:16:53.334Z,104.90
2018-02-21T01:17:53.326Z,100.60
2018-02-21T01:18:53.334Z,104.20
2018-02-21T01:19:53.348Z,102.80
2018-02-21T01:20:53.359Z,100.30
2018-02-21T01:21:53.336Z,105.60
2018-02-21T01:22:53.329Z,106.20
2018-02-21T01:23:53.339Z,103.90
2018-02-21T01:24:53.383Z,103.10
2018-02-21T01:25:53.347Z,103.00
2018-02-21T01:26:53.353Z,100.00
2018-02-21T01:27:53.350Z,98.00
2018-02-21T01:28:53.414Z,106.20
2018-02-21T01:29:53.390Z,103.60
2018-02-21T01:30:53.369Z,101.60
2018-02-21T01:31:53.385Z,107.50
2018-02-21T01:32:53.392Z,102.60
2018-02-21T01:33:53.394Z,104.80
2018-02-21T01:34:53.380Z,101.40
2018-02-21T01:35:53.491Z,98.60
2018-02-21T01:36:53.402Z,107.30
2018-02-21T01:37:53.390Z,104.40
2018-02-21T01:38:53.428Z,106.20
2018-02-21T01:39:53.413Z,105.20
2018-02-21T01:40:53.416Z,108.40
2018-02-21T01:41:53.414Z,105.00
2018-02-21T01:42:53.438Z,108.90
2018-02-21T01:43:53.440Z,104.00
2018-02-21T01:44:53.435Z,105.00
2018-02-21T01:45:53.432Z,107.20
2018-02-21T01:46:53.443Z,105.40
2018-02-21T01:47:53.468Z,104.10
2018-02-21T01:48:53.464Z,103.20
2018-02-21T01:49:53.458Z,102.50
2018-02-21T01:50:53.454Z,102.80
2018-02-21T01:51:53.451Z,101.90
2018-02-21T01:52:53.456Z,107.60
2018-02-21T01:53:53.468Z,110.20
2018-02-21T01:54:53.499Z,108.10
2018-02-21T01:55:53.486Z,102.50
2018-02-21T01:56:53.470Z,110.90
2018-02-21T01:57:53.491Z,105.30
2018-02-21T01:58:53.491Z,105.50
2018-02-21T01:59:53.480Z,105.70
2018-02-21T02:00:53.478Z,104.00
2018-02-21T02:01:53.481Z,105.00
2018-02-21T02:02:53.513Z,104.50
2018-02-21T02:03:53.483Z,103.00
2018-02-21T02:04:53.499Z,110.20
2018-02-21T02:05:53.496Z,105.40
2018-02-21T02:06:53.532Z,107.50
2018-02-21T02:07:53.526Z,111.10
2018-02-21T02:08:53.504Z,106.50
2018-02-21T02:09:53.518Z,104.50
2018-02-21T02:10:53.515Z,114.20
2018-02-21T02:11:53.529Z,105.80
2018-02-21T02:12:53.532Z,110.00
2018-02-21T02:13:53.532Z,110.10
2018-02-21T02:14:53.539Z,106.50
2018-02-21T02:15:53.555Z,112.60
2018-02-21T02:16:53.639Z,111.70
2018-02-21T02:17:53.583Z,101.10
2018-02-21T02:18:53.542Z,106.20
2018-02-21T02:19:53.566Z,109.40
2018-02-21T02:20:53.554Z,104.40
2018-02-21T02:21:53.588Z,106.70
2018-02-21T02:22:53.590Z,108.80
2018-02-21T02:23:53.576Z,110.30
2018-02-21T02:24:53.604Z,108.30
2018-02-21T02:25:53.584Z,113.70
2018-02-21T02:26:53.588Z,110.50
2018-02-21T02:27:53.573Z,108.90
2018-02-21T02:28:53.603Z,107.30
2018-02-21T02:29:53.644Z,108.10
2018-02-21T02:30:53.595Z,108.80
2018-02-21T02:31:53.628Z,106.60
2018-02-21T02:32:53.601Z,108.40
2018-02-21T02:33:53.615Z,103.40
2018-02-21T02:34:53.618Z,104.90
2018-02-21T02:35:53.602Z,111.90
2018-02-21T02:36:53.608Z,108.50
2018-02-21T02:37:53.612Z,106.90
2018-02-21T02:38:53.618Z,108.50
2018-02-21T02:39:53.622Z,107.30
2018-02-21T02:40:53.654Z,109.00
2018-02-21T02:41:53.642Z,106.90
2018-02-21T02:42:53.676Z,116.10
2018-02-21T02:43:53.649Z,110.30
2018-02-21T02:44:53.653Z,114.80
2018-02-21T02:45:53.650Z,110.30
2018-02-21T02:46:53.657Z,106.60
2018-02-21T02:47:53.657Z,109.80
2018-02-21T02:48:53.687Z,108.30
2018-02-21T02:49:53.658Z,109.50
2018-02-21T02:50:53.678Z,110.20
2018-02-21T02:51:53.673Z,111.80
2018-02-21T02:52:53.661Z,109.00
2018-02-21T02:53:53.722Z,110.90
2018-02-21T02:54:53.690Z,111.10
2018-02-21T02:55:53.695Z,113.30
2018-02-21T02:56:53.722Z,111.60
2018-02-21T02:57:53.783Z,115.90
2018-02-21T02:58:53.690Z,111.00
2018-02-21T02:59:53.703Z,109.80
2018-02-21T03:00:53.705Z,108.10
2018-02-21T03:01:53.729Z,112.90
2018-02-21T03:02:53.718Z,106.30
2018-02-21T03:03:53.722Z,110.90
2018-02-21T03:04:53.715Z,112.20
2018-02-21T03:05:53.716Z,113.60
2018-02-21T03:06:53.758Z,109.30
2018-02-21T03:07:53.746Z,110.80
2018-02-21T03:08:53.721Z,112.50
2018-02-21T03:09:53.740Z,115.00
2018-02-21T03:10:53.738Z,115.90
2018-02-21T03:11:53.729Z,107.70
2018-02-21T03:12:53.745Z,107.70
2018-02-21T03:13:53.745Z,104.80
2018-02-21T03:14:53.744Z,110.40
2018-02-21T03:15:53.770Z,114.30
2018-02-21T03:16:53.763Z,109.70
2018-02-21T03:17:53.756Z,112.80
2018-02-21T03:18:53.794Z,108.50
2018-02-21T03:19:53.768Z,106.80
2018-02-21T03:20:54.626Z,114.70
2018-02-21T03:21:53.767Z,111.60
2018-02-21T03:22:53.780Z,108.10
2018-02-21T03:23:53.777Z,109.70
2018-02-21T03:24:53.790Z,106.80
2018-02-21T03:25:53.772Z,112.80
2018-02-21T03:26:53.784Z,109.00
2018-02-21T03:27:53.793Z,110.70
2018-02-21T03:28:53.787Z,111.30
2018-02-21T03:29:53.801Z,110.70
2018-02-21T03:30:53.881Z,108.60
2018-02-21T03:31:53.864Z,105.70
2018-02-21T03:32:53.908Z,107.30
2018-02-21T03:33:53.812Z,104.00
2018-02-21T03:34:53.814Z,110.20
2018-02-21T03:35:53.823Z,108.60
2018-02-21T03:36:53.813Z,106.60
2018-02-21T03:37:53.826Z,110.80
2018-02-21T03:38:53.829Z,107.70
2018-02-21T03:39:53.842Z,106.60
2018-02-21T03:40:53.825Z,106.40
2018-02-21T03:41:53.904Z,107.00
2018-02-21T03:42:53.840Z,104.90
2018-02-21T03:43:53.854Z,107.00
2018-02-21T03:44:53.842Z,106.80
2018-02-21T03:45:53.860Z,105.40
2018-02-21T03:46:53.887Z,107.20
2018-02-21T03:47:53.847Z,104.20
2018-02-21T03:48:53.852Z,104.60
2018-02-21T03:49:53.866Z,103.70
2018-02-21T03:50:53.892Z,106.10
2018-02-21T03:51:54.008Z,106.20
2018-02-21T03:52:53.883Z,110.90
2018-02-21T03:53:53.882Z,107.10
2018-02-21T03:54:53.900Z,100.60
2018-02-21T03:55:53.903Z,105.80
2018-02-21T03:56:53.884Z,107.20
2018-02-21T03:57:53.882Z,100.60
2018-02-21T03:58:53.888Z,101.70
2018-02-21T03:59:53.884Z,102.50
2018-02-21T04:00:53.911Z,102.90
2018-02-21T04:01:53.905Z,112.00
2018-02-21T04:02:53.933Z,100.20
2018-02-21T04:03:53.916Z,101.60
2018-02-21T04:04:53.967Z,104.00
2018-02-21T04:05:53.914Z,100.80
2018-02-21T04:06:53.914Z,106.00
2018-02-21T04:07:53.962Z,99.80
2018-02-21T04:08:53.936Z,106.70
2018-02-21T04:09:53.945Z,96.30
2018-02-21T04:10:53.954Z,104.30
2018-02-21T04:11:53.920Z,98.30
2018-02-21T04:12:53.929Z,99.60
2018-02-21T04:13:53.946Z,99.10
2018-02-21T04:14:54.625Z,104.40
2018-02-21T04:15:53.956Z,101.30
2018-02-21T04:16:53.966Z,99.80
2018-02-21T04:17:53.987Z,103.30
2018-02-21T04:18:53.977Z,104.20
2018-02-21T04:19:53.984Z,101.60
2018-02-21T04:20:53.968Z,101.30
2018-02-21T04:21:53.984Z,101.10
2018-02-21T04:22:53.982Z,98.50
2018-02-21T04:23:53.997Z,101.30
2018-02-21T04:24:53.976Z,97.60
2018-02-21T04:25:53.973Z,101.50
2018-02-21T04:26:53.972Z,103.70
2018-02-21T04:27:53.986Z,93.60
2018-02-21T04:28:53.993Z,100.40
2018-02-21T04:29:53.993Z,101.10
2018-02-21T04:30:54.043Z,99.90
2018-02-21T04:31:53.998Z,101.50
2018-02-21T04:32:54.086Z,92.90
2018-02-21T04:33:54.029Z,96.80
2018-02-21T04:34:54.018Z,99.50
2018-02-21T04:35:54.504Z,99.20
2018-02-21T04:36:54.396Z,98.50
2018-02-21T04:37:54.012Z,105.10
2018-02-21T04:38:54.016Z,99.10
2018-02-21T04:39:54.038Z,99.00
2018-02-21T04:40:54.044Z,103.50
2018-02-21T04:41:54.035Z,99.30
2018-02-21T04:42:54.035Z,103.40
2018-02-21T04:43:54.037Z,101.20
2018-02-21T04:44:54.061Z,97.10
2018-02-21T04:45:54.134Z,99.30
2018-02-21T04:46:54.052Z,98.90
2018-02-21T04:47:54.042Z,97.50
2018-02-21T04:48:54.083Z,98.10
2018-02-21T04:49:54.045Z,96.80
2018-02-21T04:50:54.049Z,101.10
2018-02-21T04:51:54.071Z,98.50
2018-02-21T04:52:54.078Z,105.20
2018-02-21T04:53:54.069Z,95.50
2018-02-21T04:54:54.223Z,102.40
2018-02-21T04:55:54.096Z,100.90
2018-02-21T04:56:54.102Z,94.60
2018-02-21T04:57:54.085Z,97.20
2018-02-21T04:58:54.077Z,100.20
2018-02-21T04:59:54.079Z,100.30
2018-02-21T05:00:54.093Z,98.90
2018-02-21T05:01:54.104Z,99.10
2018-02-21T05:02:54.111Z,99.80
2018-02-21T05:03:54.105Z,94.90
2018-02-21T05:04:54.118Z,96.40
2018-02-21T05:05:54.108Z,101.00
2018-02-21T05:06:54.109Z,106.00
2018-02-21T05:07:54.119Z,97.30
2018-02-21T05:08:54.135Z,94.50
2018-02-21T05:09:54.114Z,99.90
2018-02-21T05:10:54.173Z,99.10
2018-02-21T05:11:54.239Z,96.70
2018-02-21T05:12:54.151Z,100.60
2018-02-21T05:13:54.186Z,98.80
2018-02-21T05:14:54.162Z,100.20
2018-02-21T05:15:54.141Z,95.60
2018-02-21T05:16:54.144Z,92.10
2018-02-21T05:17:54.158Z,94.70
2018-02-21T05:18:54.163Z,95.00
2018-02-21T05:19:54.182Z,99.80
2018-02-21T05:20:54.147Z,93.30
2018-02-21T05:21:54.165Z,100.20
2018-02-21T05:22:54.170Z,90.60
2018-02-21T05:23:54.160Z,99.60
2018-02-21T05:24:54.167Z,98.90
2018-02-21T05:25:54.185Z,97.30
2018-02-21T05:26:55.124Z,100.40
2018-02-21T05:27:54.197Z,99.00
2018-02-21T05:28:54.174Z,96.70
2018-02-21T05:29:54.190Z,94.40
2018-02-21T05:30:54.216Z,98.20
2018-02-21T05:31:54.200Z,97.30
2018-02-21T05:32:54.210Z,96.70
2018-02-21T05:33:54.187Z,97.10
2018-02-21T05:34:54.197Z,99.90
2018-02-21T05:35:54.198Z,95.40
2018-02-21T05:36:54.201Z,94.60
2018-02-21T05:37:54.213Z,92.80
2018-02-21T05:38:54.219Z,97.10
2018-02-21T05:39:54.233Z,93.60
2018-02-21T05:40:54.207Z,103.40
2018-02-21T05:41:54.246Z,98.30
2018-02-21T05:42:54.229Z,99.40
2018-02-21T05:43:54.229Z,95.60
2018-02-21T05:44:54.240Z,99.60
2018-02-21T05:45:54.246Z,94.80
2018-02-21T05:46:54.233Z,96.20
2018-02-21T05:47:54.249Z,101.00
2018-02-21T05:48:54.277Z,96.30
2018-02-21T05:49:54.239Z,98.90
2018-02-21T05:50:54.261Z,95.20
2018-02-21T05:51:54.254Z,96.90
2018-02-21T05:52:55.128Z,98.00
2018-02-21T05:53:54.302Z,99.10
2018-02-21T05:54:54.323Z,96.10
2018-02-21T05:55:54.266Z,103.80
2018-02-21T05:56:54.267Z,95.70
2018-02-21T05:57:54.306Z,103.00
2018-02-21T05:58:54.290Z,99.90
2018-02-21T05:59:54.279Z,100.20
2018-02-21T06:00:54.269Z,102.70
2018-02-21T06:01:54.274Z,94.70
2018-02-21T06:02:54.279Z,99.20
2018-02-21T06:03:54.326Z,97.10
2018-02-21T06:04:54.349Z,99.00
2018-02-21T06:05:54.323Z,96.00
2018-02-21T06:06:54.313Z,97.20
2018-02-21T06:07:54.297Z,95.70
2018-02-21T06:08:54.318Z,107.00
2018-02-21T06:09:54.390Z,95.40
2018-02-21T06:10:54.344Z,94.20
2018-02-21T06:11:54.332Z,94.10
2018-02-21T06:12:54.346Z,93.30
2018-02-21T06:13:54.318Z,95.90
2018-02-21T06:14:54.353Z,96.00
2018-02-21T06:15:54.332Z,94.00
2018-02-21T06:16:54.325Z,97.60
2018-02-21T06:17:54.318Z,91.00
2018-02-21T06:18:54.329Z,100.50
2018-02-21T06:19:54.342Z,92.60
2018-02-21T06:20:54.344Z,96.10
2018-02-21T06:21:54.348Z,92.40
2018-02-21T06:22:54.359Z,96.50
2018-02-21T06:23:54.372Z,90.60
2018-02-21T06:24:54.383Z,100.40
2018-02-21T06:25:54.374Z,101.00
2018-02-21T06:26:54.347Z,97.90
2018-02-21T06:27:54.371Z,99.60
2018-02-21T06:28:54.395Z,90.20
2018-02-21T06:29:54.358Z,98.20
2018-02-21T06:30:54.377Z,95.90
2018-02-21T06:31:54.411Z,98.20
2018-02-21T06:32:54.403Z,95.80
2018-02-21T06:33:54.501Z,98.10
2018-02-21T06:34:54.411Z,100.50
2018-02-21T06:35:54.414Z,98.90
2018-02-21T06:36:54.377Z,90.60
2018-02-21T06:37:54.384Z,98.90
2018-02-21T06:38:54.402Z,98.10
2018-02-21T06:39:54.468Z,100.40
2018-02-21T06:40:54.396Z,94.30
2018-02-21T06:41:54.394Z,95.80
2018-02-21T06:42:54.412Z,99.00
2018-02-21T06:43:54.425Z,94.70
2018-02-21T06:44:54.409Z,102.00
2018-02-21T06:45:54.421Z,93.70
2018-02-21T06:46:55.123Z,102.00
2018-02-21T06:47:54.408Z,93.50
2018-02-21T06:48:54.445Z,95.20
2018-02-21T06:49:54.425Z,95.70
2018-02-21T06:50:54.422Z,99.50
2018-02-21T06:51:54.460Z,92.00
2018-02-21T06:52:54.451Z,98.90
2018-02-21T06:53:54.437Z,95.40
2018-02-21T06:54:54.478Z,98.60
2018-02-21T06:55:54.456Z,92.60
2018-02-21T06:56:54.454Z,91.80
2018-02-21T06:57:54.451Z,97.50
2018-02-21T06:58:54.462Z,95.20
2018-02-21T06:59:54.459Z,94.30
2018-02-21T07:00:54.471Z,99.10
2018-02-21T07:01:54.462Z,97.20
2018-02-21T07:02:54.453Z,94.80
2018-02-21T07:03:54.457Z,89.00
2018-02-21T07:04:54.537Z,92.40
2018-02-21T07:05:54.499Z,89.90
2018-02-21T07:06:54.486Z,95.30
2018-02-21T07:07:54.517Z,97.50
2018-02-21T07:08:54.465Z,92.20
2018-02-21T07:09:54.488Z,92.00
2018-02-21T07:10:54.499Z,92.40
2018-02-21T07:11:54.485Z,86.60
2018-02-21T07:12:54.494Z,94.80
2018-02-21T07:13:54.500Z,90.20
2018-02-21T07:14:54.520Z,95.30
2018-02-21T07:15:54.497Z,93.70
2018-02-21T07:16:54.496Z,89.30
2018-02-21T07:17:54.558Z,91.50
2018-02-21T07:18:54.521Z,91.30
2018-02-21T07:19:54.513Z,99.20
2018-02-21T07:20:54.547Z,92.20
2018-02-21T07:21:54.570Z,91.20
2018-02-21T07:22:54.515Z,88.20
2018-02-21T07:23:54.562Z,93.70
2018-02-21T07:24:54.559Z,96.40
2018-02-21T07:25:54.524Z,90.00
2018-02-21T07:26:54.539Z,99.40
2018-02-21T07:27:54.543Z,96.50
2018-02-21T07:28:54.533Z,95.60
2018-02-21T07:29:54.544Z,95.90
2018-02-21T07:30:54.564Z,91.50
2018-02-21T07:31:54.560Z,95.40
2018-02-21T07:32:54.544Z,87.80
2018-02-21T07:33:54.548Z,85.80
2018-02-21T07:34:54.593Z,85.90
2018-02-21T07:35:54.592Z,88.50
2018-02-21T07:36:54.587Z,89.90
2018-02-21T07:37:54.583Z,87.00
2018-02-21T07:38:54.656Z,92.90
2018-02-21T07:39:54.597Z,87.30
2018-02-21T07:40:54.618Z,89.40
2018-02-21T07:41:54.581Z,86.10
2018-02-21T07:42:54.584Z,81.30
2018-02-21T07:43:54.608Z,85.70
2018-02-21T07:44:54.601Z,86.30
2018-02-21T07:45:54.594Z,82.20
2018-02-21T07:46:54.595Z,86.50
2018-02-21T07:47:54.593Z,89.70
2018-02-21T07:48:54.612Z,88.60
2018-02-21T07:49:54.614Z,91.80
2018-02-21T07:50:54.625Z,89.20
2018-02-21T07:51:54.617Z,89.30
2018-02-21T07:52:54.611Z,89.30
2018-02-21T07:53:54.615Z,84.80
2018-02-21T07:54:54.620Z,85.80
2018-02-21T07:55:54.703Z,86.40
2018-02-21T07:56:54.636Z,82.80
2018-02-21T07:57:54.663Z,90.40
2018-02-21T07:58:54.644Z,86.50
2018-02-21T07:59:54.670Z,83.20
2018-02-21T08:00:54.703Z,81.70
2018-02-21T08:01:54.669Z,88.80
2018-02-21T08:02:54.668Z,86.00
2018-02-21T08:03:54.695Z,83.50
2018-02-21T08:04:54.662Z,81.40
2018-02-21T08:05:54.668Z,80.80
2018-02-21T08:06:54.679Z,84.10
2018-02-21T08:07:54.683Z,80.80
2018-02-21T08:08:54.828Z,82.90
2018-02-21T08:09:54.695Z,80.90
2018-02-21T08:10:54.710Z,80.90
2018-02-21T08:11:54.708Z,76.90
2018-02-21T08:12:54.711Z,81.50
2018-02-21T08:13:54.726Z,80.30
2018-02-21T08:14:54.724Z,82.40
2018-02-21T08:15:54.733Z,77.50
2018-02-21T08:16:54.727Z,77.10
2018-02-21T08:17:54.775Z,77.20
2018-02-21T08:18:54.747Z,76.60
2018-02-21T08:19:54.776Z,80.80
2018-02-21T08:20:54.788Z,71.40
2018-02-21T08:21:54.772Z,70.10
2018-02-21T08:22:54.794Z,67.60
2018-02-21T08:23:54.790Z,74.30
2018-02-21T08:24:54.802Z,74.60
2018-02-21T08:25:54.803Z,75.50
2018-02-21T08:26:54.806Z,68.50
2018-02-21T08:27:54.815Z,77.50
2018-02-21T08:28:54.840Z,73.80
2018-02-21T08:29:54.840Z,71.20
2018-02-21T08:30:54.845Z,73.10
2018-02-21T08:31:54.938Z,73.60
2018-02-21T08:32:54.890Z,73.20
2018-02-21T08:33:54.898Z,74.30
2018-02-21T08:34:54.891Z,70.20
2018-02-21T08:35:54.920Z,72.70
2018-02-21T08:36:54.932Z,73.80
2018-02-21T08:37:54.944Z,70.20
2018-02-21T08:38:54.944Z,67.50
2018-02-21T08:39:54.952Z,67.10
2018-02-21T08:40:54.956Z,69.90
2018-02-21T08:41:54.981Z,69.10
2018-02-21T08:42:54.986Z,69.30
2018-02-21T08:43:55.004Z,68.40
2018-02-21T08:44:55.006Z,67.70
2018-02-21T08:45:55.004Z,66.20
2018-02-21T08:46:55.048Z,66.70
2018-02-21T08:47:55.046Z,68.60
2018-02-21T08:48:55.058Z,67.30
2018-02-21T08:49:55.097Z,71.30
2018-02-21T08:50:55.077Z,69.30
2018-02-21T08:51:55.094Z,68.30
2018-02-21T08:52:55.103Z,64.70
2018-02-21T08:53:55.128Z,69.80
2018-02-21T08:54:55.167Z,66.30
2018-02-21T08:55:55.168Z,72.60
2018-02-21T08:56:55.274Z,70.00
2018-02-21T08:57:55.176Z,68.10
2018-02-21T08:58:55.192Z,67.30
2018-02-21T08:59:55.202Z,67.80
2018-02-21T09:00:55.196Z,67.00
2018-02-21T09:01:55.224Z,66.50
2018-02-21T09:02:55.239Z,64.30
2018-02-21T09:03:55.234Z,62.80
2018-02-21T09:04:55.247Z,64.30
2018-02-21T09:05:55.298Z,65.20
2018-02-21T09:06:55.277Z,64.40
2018-02-21T09:07:55.316Z,62.10
2018-02-21T09:08:55.460Z,67.00
2018-02-21T09:09:55.318Z,61.20
2018-02-21T09:10:55.330Z,64.10
2018-02-21T09:11:55.358Z,59.80
2018-02-21T09:12:55.353Z,63.70
2018-02-21T09:13:55.362Z,63.80
2018-02-21T09:14:55.410Z,60.10
2018-02-21T09:15:55.387Z,60.90
2018-02-21T09:16:56.137Z,55.20
2018-02-21T09:17:55.445Z,64.70
2018-02-21T09:18:55.434Z,60.20
2018-02-21T09:19:55.458Z,60.20
2018-02-21T09:20:55.469Z,65.30
2018-02-21T09:21:55.522Z,60.70
2018-02-21T09:22:55.547Z,64.70
2018-02-21T09:23:55.507Z,63.00
2018-02-21T09:24:55.549Z,58.60
2018-02-21T09:25:55.554Z,57.70
2018-02-21T09:26:55.606Z,61.60
2018-02-21T09:27:55.587Z,56.30
2018-02-21T09:28:55.575Z,61.00
2018-02-21T09:29:55.605Z,62.70
2018-02-21T09:30:55.612Z,59.10
2018-02-21T09:31:55.739Z,64.90
2018-02-21T09:32:55.650Z,57.90
2018-02-21T09:33:55.659Z,56.50
2018-02-21T09:34:55.676Z,54.60
2018-02-21T09:35:55.708Z,60.80
2018-02-21T09:36:55.699Z,63.60
2018-02-21T09:37:55.716Z,58.30
2018-02-21T09:38:55.785Z,59.70
2018-02-21T09:39:55.769Z,57.70
2018-02-21T09:40:55.769Z,59.80
2018-02-21T09:41:56.648Z,57.10
2018-02-21T09:42:55.845Z,56.10
2018-02-21T09:43:55.822Z,54.70
2018-02-21T09:44:55.871Z,56.10
2018-02-21T09:45:55.839Z,55.10
2018-02-21T09:46:55.855Z,57.00
2018-02-21T09:47:55.881Z,58.30
2018-02-21T09:48:55.886Z,59.00
2018-02-21T09:49:55.956Z,52.70
2018-02-21T09:50:55.957Z,53.70
2018-02-21T09:51:55.964Z,57.90
2018-02-21T09:52:55.978Z,55.10
2018-02-21T09:53:56.005Z,52.80
2018-02-21T09:54:56.015Z,54.40
2018-02-21T09:55:56.022Z,54.90
2018-02-21T09:56:56.023Z,60.00
2018-02-21T09:57:56.041Z,51.30
2018-02-21T09:58:56.040Z,52.30
2018-02-21T09:59:56.125Z,48.10
2018-02-21T10:00:56.125Z,53.70
2018-02-21T10:01:56.148Z,58.20
2018-02-21T10:02:56.127Z,54.30
2018-02-21T10:03:56.145Z,49.50
2018-02-21T10:04:56.161Z,52.40
2018-02-21T10:05:56.185Z,49.80
2018-02-21T10:06:56.198Z,54.80
2018-02-21T10:07:56.203Z,48.30
2018-02-21T10:08:56.214Z,54.60
2018-02-21T10:09:56.250Z,50.50
2018-02-21T10:10:56.260Z,55.00
2018-02-21T10:11:56.265Z,53.10
2018-02-21T10:12:56.304Z,52.10
2018-02-21T10:13:56.302Z,61.20
2018-02-21T10:14:56.310Z,51.90
2018-02-21T10:15:56.350Z,51.10
2018-02-21T10:16:56.350Z,50.50
2018-02-21T10:17:56.387Z,56.40
2018-02-21T10:18:56.398Z,55.20
2018-02-21T10:19:56.430Z,62.00
2018-02-21T10:20:56.413Z,52.00
2018-02-21T10:21:56.458Z,63.40
2018-02-21T10:22:56.492Z,51.60
2018-02-21T10:23:56.472Z,48.70
2018-02-21T10:24:56.484Z,48.70
2018-02-21T10:25:56.508Z,46.70
2018-02-21T10:26:56.526Z,49.30
2018-02-21T10:27:56.564Z,50.50
2018-02-21T10:28:56.570Z,51.50
2018-02-21T10:29:56.577Z,50.40
2018-02-21T10:30:56.607Z,49.00
2018-02-21T10:31:56.595Z,49.60
2018-02-21T10:32:56.630Z,52.00
2018-02-21T10:33:56.687Z,52.80
2018-02-21T10:34:56.685Z,54.20
2018-02-21T10:35:56.668Z,53.60
2018-02-21T10:36:56.702Z,52.10
2018-02-21T10:37:56.724Z,54.50
2018-02-21T10:38:56.718Z,56.00
2018-02-21T10:39:56.733Z,52.10
2018-02-21T10:40:56.803Z,55.70
2018-02-21T10:41:56.786Z,50.80
2018-02-21T10:42:56.829Z,49.60
2018-02-21T10:43:56.878Z,48.70
2018-02-21T10:44:56.843Z,47.50
2018-02-21T10:45:56.862Z,59.60
2018-02-21T10:46:56.860Z,64.60
2018-02-21T10:47:56.885Z,84.90
2018-02-21T10:48:56.940Z,74.30
2018-02-21T10:49:56.940Z,54.30
2018-02-21T10:50:56.977Z,58.60
2018-02-21T10:51:56.944Z,45.90
2018-02-21T10:52:56.975Z,63.60
2018-02-21T10:53:57.013Z,56.30
2018-02-21T10:54:57.011Z,48.00
2018-02-21T10:55:57.030Z,47.70
2018-02-21T10:56:57.044Z,44.00
2018-02-21T10:57:57.055Z,45.90
2018-02-21T10:58:57.094Z,49.50
2018-02-21T10:59:57.106Z,40.40
2018-02-21T11:00:57.105Z,51.60
2018-02-21T11:01:57.178Z,49.30
2018-02-21T11:02:57.174Z,44.60
2018-02-21T11:03:57.193Z,46.50
2018-02-21T11:04:57.271Z,56.40
2018-02-21T11:05:57.198Z,64.40
2018-02-21T11:06:57.218Z,58.10
2018-02-21T11:07:57.249Z,69.80
2018-02-21T11:08:57.282Z,52.90
2018-02-21T11:09:57.287Z,62.70
2018-02-21T11:10:57.289Z,70.40
2018-02-21T11:11:57.309Z,54.10
2018-02-21T11:12:57.389Z,55.20
2018-02-21T11:13:57.375Z,48.80
2018-02-21T11:14:57.377Z,43.30
2018-02-21T11:15:57.374Z,50.80
2018-02-21T11:16:57.394Z,49.90
2018-02-21T11:17:57.419Z,47.30
2018-02-21T11:18:57.452Z,43.80
2018-02-21T11:19:57.513Z,44.80
2018-02-21T11:20:57.492Z,41.00
2018-02-21T11:21:57.536Z,37.60
2018-02-21T11:22:57.536Z,44.80
2018-02-21T11:23:57.545Z,44.10
2018-02-21T11:24:57.547Z,38.40
2018-02-21T11:25:57.681Z,46.60
2018-02-21T11:26:57.586Z,45.00
2018-02-21T11:27:57.623Z,37.80
2018-02-21T11:28:57.653Z,56.60
2018-02-21T11:29:57.636Z,43.90
2018-02-21T11:30:57.713Z,47.90
2018-02-21T11:31:57.699Z,48.50
2018-02-21T11:32:57.722Z,42.00
2018-02-21T11:33:57.707Z,49.50
2018-02-21T11:34:57.742Z,45.60
2018-02-21T11:35:57.751Z,47.10
2018-02-21T11:36:57.839Z,59.40
2018-02-21T11:37:57.817Z,45.40
2018-02-21T11:38:57.803Z,43.40
2018-02-21T11:39:57.815Z,44.50
2018-02-21T11:40:57.865Z,43.20
2018-02-21T11:41:57.873Z,39.60
2018-02-21T11:42:57.896Z,43.30
2018-02-21T11:43:57.899Z,41.80
2018-02-21T11:44:57.937Z,40.30
2018-02-21T11:45:57.972Z,36.00
2018-02-21T11:46:57.956Z,36.00
2018-02-21T11:47:58.015Z,38.00
2018-02-21T11:48:57.977Z,35.20
2018-02-21T11:49:57.997Z,36.20
2018-02-21T11:50:58.041Z,51.20
2018-02-21T11:51:58.052Z,46.30
2018-02-21T11:52:58.712Z,36.80
2018-02-21T11:53:58.068Z,40.80
2018-02-21T11:54:58.121Z,37.50
2018-02-21T11:55:58.114Z,46.80
2018-02-21T11:56:58.148Z,59.70
2018-02-21T11:57:58.163Z,51.80
2018-02-21T11:58:58.220Z,55.80
2018-02-21T11:59:58.192Z,66.40
2018-02-21T12:00:58.269Z,50.30
2018-02-21T12:01:58.223Z,45.40
2018-02-21T12:02:58.265Z,47.60
2018-02-21T12:03:58.300Z,41.20
2018-02-21T12:04:58.404Z,42.30
2018-02-21T12:05:58.322Z,47.30
2018-02-21T12:06:58.338Z,34.30
2018-02-21T12:07:58.322Z,40.00
2018-02-21T12:08:58.389Z,46.60
2018-02-21T12:09:58.404Z,45.10
2018-02-21T12:10:58.387Z,40.90
2018-02-21T12:11:58.419Z,40.30
2018-02-21T12:12:58.435Z,57.30
2018-02-21T12:13:58.444Z,70.90
2018-02-21T12:14:58.469Z,43.90
2018-02-21T12:15:58.485Z,45.90
2018-02-21T12:16:58.510Z,44.70
2018-02-21T12:17:58.558Z,54.30
2018-02-21T12:18:58.617Z,34.20
2018-02-21T12:19:58.554Z,41.40
2018-02-21T12:20:58.601Z,54.60
2018-02-21T12:21:58.599Z,40.70
2018-02-21T12:22:58.618Z,50.40
2018-02-21T12:23:58.651Z,45.10
2018-02-21T12:24:58.746Z,37.60
2018-02-21T12:25:58.675Z,35.80
2018-02-21T12:26:58.684Z,38.90
2018-02-21T12:27:58.734Z,36.20
2018-02-21T12:28:58.737Z,37.30
2018-02-21T12:29:58.748Z,44.30
2018-02-21T12:30:58.772Z,44.30
2018-02-21T12:31:58.826Z,49.90
2018-02-21T12:32:58.800Z,37.50
2018-02-21T12:33:58.824Z,39.20
2018-02-21T12:34:58.906Z,46.00
2018-02-21T12:35:58.985Z,40.00
2018-02-21T12:36:58.892Z,40.40
2018-02-21T12:37:58.908Z,36.80
2018-02-21T12:38:58.955Z,38.90
2018-02-21T12:39:58.931Z,52.50
2018-02-21T12:40:58.978Z,57.80
2018-02-21T12:41:58.980Z,44.60
2018-02-21T12:42:58.982Z,41.10
2018-02-21T12:43:59.015Z,42.00
2018-02-21T12:44:59.193Z,48.80
2018-02-21T12:45:59.049Z,40.50